createdAt,value
2022-12-17T00:02:36.735Z,97069.41
2022-12-17T00:05:22.115Z,97076.75
2022-12-17T00:08:14.346Z,97077.66
2022-12-17T00:10:59.374Z,97086.16
2022-12-17T00:13:44.360Z,97080.28
2022-12-17T00:16:29.501Z,97089.81
2022-12-17T00:19:14.734Z,97083.09
2022-12-17T00:21:59.937Z,97082.78
2022-12-17T00:24:44.981Z,97079.75
2022-12-17T00:27:29.863Z,97102.91
2022-12-17T00:30:15.056Z,97095.41
2022-12-17T00:33:00.120Z,97093.28
2022-12-17T00:35:45.368Z,97097.56
2022-12-17T00:38:36.900Z,97095.63
2022-12-17T00:41:21.878Z,97094.94
2022-12-17T00:44:07.264Z,97089.81
2022-12-17T00:46:52.502Z,97087.59
2022-12-17T00:49:37.821Z,97105.22
2022-12-17T00:52:22.858Z,97101.59
2022-12-17T00:55:07.993Z,97105.84
2022-12-17T00:57:53.161Z,97100.75
2022-12-17T01:00:38.294Z,97114.03
2022-12-17T01:03:25.945Z,97107.16
2022-12-17T01:06:24.724Z,97109.09
2022-12-17T01:09:09.585Z,97108.50
2022-12-17T01:11:56.576Z,97112.59
2022-12-17T01:14:42.446Z,97106.78
2022-12-17T01:17:27.602Z,97109.25
2022-12-17T01:20:12.580Z,97115.00
2022-12-17T01:22:58.773Z,97116.56
2022-12-17T01:25:44.020Z,97114.19
2022-12-17T01:28:28.940Z,97122.41
2022-12-17T01:31:17.308Z,97122.50
2022-12-17T01:34:02.661Z,97135.78
2022-12-17T01:36:47.782Z,97141.22
2022-12-17T01:39:32.834Z,97156.69
2022-12-17T01:42:18.040Z,97151.53
2022-12-17T01:45:23.020Z,97159.75
2022-12-17T01:48:09.339Z,97174.94
2022-12-17T01:50:56.721Z,97175.16
2022-12-17T01:53:44.435Z,97167.66
2022-12-17T01:56:30.260Z,97174.19
2022-12-17T01:59:15.724Z,97178.38
2022-12-17T02:02:00.802Z,97188.69
2022-12-17T02:04:46.456Z,97185.81
2022-12-17T02:07:35.834Z,97201.19
2022-12-17T02:10:39.918Z,97205.09
2022-12-17T02:13:32.531Z,97213.44
2022-12-17T02:16:32.593Z,97216.22
2022-12-17T02:19:23.644Z,97217.06
2022-12-17T02:22:12.704Z,97230.16
2022-12-17T02:25:12.474Z,97228.88
2022-12-17T02:27:57.825Z,97239.41
2022-12-17T02:30:43.040Z,97241.28
2022-12-17T02:33:29.257Z,97246.19
2022-12-17T02:36:21.056Z,97246.38
2022-12-17T02:39:06.184Z,97251.69
2022-12-17T02:41:57.696Z,97250.19
2022-12-17T02:44:55.719Z,97262.06
2022-12-17T02:47:42.192Z,97260.91
2022-12-17T02:50:27.596Z,97258.88
2022-12-17T02:53:13.439Z,97256.31
2022-12-17T02:55:58.572Z,97268.94
2022-12-17T02:58:44.800Z,97278.31
2022-12-17T03:01:32.144Z,97292.66
2022-12-17T03:04:17.376Z,97290.16
2022-12-17T03:07:04.349Z,97294.41
2022-12-17T03:09:49.629Z,97294.50
2022-12-17T03:12:34.911Z,97304.00
2022-12-17T03:15:19.828Z,97310.28
2022-12-17T03:18:04.680Z,97320.78
2022-12-17T03:20:50.020Z,97319.16
2022-12-17T03:23:35.665Z,97325.03
2022-12-17T03:26:21.896Z,97331.03
2022-12-17T03:29:07.376Z,97337.25
2022-12-17T03:31:52.338Z,97340.09
2022-12-17T03:34:37.671Z,97341.16
2022-12-17T03:37:22.637Z,97338.50
2022-12-17T03:40:08.033Z,97338.38
2022-12-17T03:42:52.889Z,97346.31
2022-12-17T03:45:37.917Z,97356.84
2022-12-17T03:48:27.287Z,97342.19
2022-12-17T03:51:12.922Z,97342.19
2022-12-17T03:53:58.098Z,97347.56
2022-12-17T03:56:43.902Z,97349.81
2022-12-17T03:59:28.882Z,97356.63
2022-12-17T04:02:14.243Z,97355.97
2022-12-17T04:04:59.284Z,97361.31
2022-12-17T04:07:44.230Z,97364.91
2022-12-17T04:10:29.102Z,97360.63
2022-12-17T04:13:14.008Z,97370.03
2022-12-17T04:15:59.071Z,97363.25
2022-12-17T04:18:44.247Z,97373.63
2022-12-17T04:21:29.494Z,97379.47
2022-12-17T04:24:14.616Z,97380.44
2022-12-17T04:26:59.517Z,97390.78
2022-12-17T04:29:44.507Z,97395.72
2022-12-17T04:32:34.873Z,97407.28
2022-12-17T04:35:20.476Z,97406.09
2022-12-17T04:38:10.373Z,97413.03
2022-12-17T04:40:55.254Z,97414.91
2022-12-17T04:43:40.513Z,97417.69
2022-12-17T04:46:25.671Z,97418.75
2022-12-17T04:49:10.976Z,97423.53
2022-12-17T04:51:56.218Z,97420.03
2022-12-17T04:54:41.433Z,97415.97
2022-12-17T04:57:26.333Z,97427.69
2022-12-17T05:00:14.219Z,97426.38
2022-12-17T05:02:59.610Z,97434.47
2022-12-17T05:05:44.809Z,97448.78
2022-12-17T05:08:29.995Z,97447.16
2022-12-17T05:11:19.723Z,97451.53
2022-12-17T05:14:05.078Z,97450.78
2022-12-17T05:16:57.783Z,97444.31
2022-12-17T05:19:42.938Z,97456.41
2022-12-17T05:22:28.153Z,97462.78
2022-12-17T05:25:12.921Z,97467.91
2022-12-17T05:27:57.778Z,97463.63
2022-12-17T05:30:42.921Z,97472.56
2022-12-17T05:33:28.010Z,97480.41
2022-12-17T05:36:12.893Z,97481.38
2022-12-17T05:39:17.593Z,97490.00
2022-12-17T05:42:02.457Z,97500.50
2022-12-17T05:44:47.435Z,97504.88
2022-12-17T05:47:32.353Z,97524.44
2022-12-17T05:50:17.504Z,97524.84
2022-12-17T05:53:02.588Z,97523.19
2022-12-17T05:55:55.458Z,97516.38
2022-12-17T05:58:40.815Z,97520.63
2022-12-17T06:01:26.122Z,97525.09
2022-12-17T06:04:11.351Z,97531.16
2022-12-17T06:06:56.725Z,97526.56
2022-12-17T06:09:41.601Z,97531.69
2022-12-17T06:12:26.753Z,97534.88
2022-12-17T06:15:11.879Z,97542.09
2022-12-17T06:18:17.307Z,97548.69
2022-12-17T06:21:02.584Z,97558.19
2022-12-17T06:23:47.451Z,97567.63
2022-12-17T06:26:32.438Z,97563.78
2022-12-17T06:29:17.434Z,97556.16
2022-12-17T06:32:02.372Z,97557.00
2022-12-17T06:34:47.331Z,97568.06
2022-12-17T06:37:32.502Z,97582.28
2022-12-17T06:40:17.575Z,97581.25
2022-12-17T06:43:10.946Z,97581.03
2022-12-17T06:45:56.157Z,97594.31
2022-12-17T06:48:41.295Z,97602.53
2022-12-17T06:51:26.427Z,97608.03
2022-12-17T06:54:11.832Z,97617.91
2022-12-17T06:56:57.308Z,97622.03
2022-12-17T06:59:42.409Z,97626.09
2022-12-17T07:02:30.775Z,97630.56
2022-12-17T07:05:15.834Z,97632.81
2022-12-17T07:08:00.953Z,97629.94
2022-12-17T07:10:46.185Z,97644.81
2022-12-17T07:13:31.140Z,97651.00
2022-12-17T07:16:16.313Z,97660.16
2022-12-17T07:19:01.746Z,97659.09
2022-12-17T07:21:46.931Z,97657.16
2022-12-17T07:24:31.992Z,97661.31
2022-12-17T07:27:16.899Z,97661.25
2022-12-17T07:30:02.062Z,97677.88
2022-12-17T07:32:47.758Z,97660.38
2022-12-17T07:35:32.980Z,97662.78
2022-12-17T07:38:21.656Z,97667.31
2022-12-17T07:41:06.762Z,97676.78
2022-12-17T07:43:53.419Z,97695.75
2022-12-17T07:46:38.817Z,97704.47
2022-12-17T07:49:25.906Z,97714.25
2022-12-17T07:52:11.727Z,97721.50
2022-12-17T07:54:56.763Z,97724.06
2022-12-17T07:57:41.893Z,97716.81
2022-12-17T08:00:27.180Z,97720.13
2022-12-17T08:03:15.721Z,97729.59
2022-12-17T08:06:00.991Z,97732.38
2022-12-17T08:08:46.308Z,97736.44
2022-12-17T08:11:31.246Z,97737.38
2022-12-17T08:14:16.547Z,97743.25
2022-12-17T08:17:01.675Z,97745.81
2022-12-17T08:19:46.943Z,97751.22
2022-12-17T08:22:32.093Z,97755.50
2022-12-17T08:25:17.016Z,97759.44
2022-12-17T08:28:04.571Z,97767.53
2022-12-17T08:30:56.046Z,97791.13
2022-12-17T08:33:41.269Z,97804.47
2022-12-17T08:36:27.084Z,97804.47
2022-12-17T08:39:12.265Z,97814.38
2022-12-17T08:42:02.508Z,97807.59
2022-12-17T08:44:49.478Z,97822.56
2022-12-17T08:47:34.544Z,97823.03
2022-12-17T08:50:19.492Z,97841.91
2022-12-17T08:53:04.411Z,97844.88
2022-12-17T08:55:49.517Z,97847.94
2022-12-17T08:58:34.599Z,97862.50
2022-12-17T09:01:19.980Z,97859.31
2022-12-17T09:04:05.560Z,97866.31
2022-12-17T09:06:50.869Z,97873.09
2022-12-17T09:09:35.849Z,97879.72
2022-12-17T09:12:20.818Z,97886.41
2022-12-17T09:15:05.545Z,97890.00
2022-12-17T09:17:50.360Z,97884.16
2022-12-17T09:20:35.296Z,97889.00
2022-12-17T09:23:20.536Z,97881.97
2022-12-17T09:26:12.729Z,97891.19
2022-12-17T09:28:57.875Z,97912.56
2022-12-17T09:31:42.648Z,97903.38
2022-12-17T09:34:28.026Z,97911.47
2022-12-17T09:37:13.415Z,97903.16
2022-12-17T09:39:58.353Z,97906.34
2022-12-17T09:42:52.506Z,97900.91
2022-12-17T09:45:42.197Z,97897.81
2022-12-17T09:48:50.109Z,97903.31
2022-12-17T09:51:40.461Z,97920.47
2022-12-17T09:54:30.117Z,97927.47
2022-12-17T09:57:15.691Z,97906.03
2022-12-17T10:00:00.817Z,97912.53
2022-12-17T10:02:48.532Z,97915.63
2022-12-17T10:05:37.237Z,97926.44
2022-12-17T10:08:23.941Z,97926.25
2022-12-17T10:11:08.966Z,97943.81
2022-12-17T10:13:53.917Z,97948.94
2022-12-17T10:16:42.328Z,97945.16
2022-12-17T10:19:48.560Z,97950.25
2022-12-17T10:22:37.924Z,97958.19
2022-12-17T10:25:33.293Z,97963.53
2022-12-17T10:28:24.057Z,97947.53
2022-12-17T10:31:09.157Z,97960.66
2022-12-17T10:33:57.971Z,97945.63
2022-12-17T10:36:43.803Z,97958.81
2022-12-17T10:39:58.246Z,97961.34
2022-12-17T10:42:46.635Z,97945.06
2022-12-17T10:45:38.019Z,97951.91
2022-12-17T10:48:33.770Z,97958.94
2022-12-17T10:51:18.804Z,97957.25
2022-12-17T10:54:07.265Z,97959.13
2022-12-17T10:56:52.217Z,97956.34
2022-12-17T10:59:49.953Z,97959.31
2022-12-17T11:02:39.000Z,97968.78
2022-12-17T11:05:30.700Z,97969.19
2022-12-17T11:08:24.936Z,97964.63
2022-12-17T11:11:09.880Z,97962.16
2022-12-17T11:14:05.095Z,97973.72
2022-12-17T11:17:02.250Z,97973.91
2022-12-17T11:19:47.317Z,97970.69
2022-12-17T11:22:41.052Z,97983.91
2022-12-17T11:25:41.259Z,97988.63
2022-12-17T11:28:55.573Z,97988.81
2022-12-17T11:31:55.759Z,97998.19
2022-12-17T11:34:40.940Z,98000.34
2022-12-17T11:37:25.788Z,98002.25
2022-12-17T11:40:29.985Z,97992.00
2022-12-17T11:43:18.598Z,97994.78
2022-12-17T11:46:18.256Z,97998.09
2022-12-17T11:49:03.254Z,98002.91
2022-12-17T11:51:57.668Z,98004.19
2022-12-17T11:54:53.169Z,98008.41
2022-12-17T11:57:42.091Z,98005.00
2022-12-17T12:00:40.423Z,97998.59
2022-12-17T12:03:32.047Z,98007.31
2022-12-17T12:06:38.529Z,98011.63
2022-12-17T12:09:33.495Z,98008.41
2022-12-17T12:12:37.296Z,98014.41
2022-12-17T12:15:41.273Z,98009.72
2022-12-17T12:18:34.301Z,98016.16
2022-12-17T12:21:19.687Z,98018.06
2022-12-17T12:24:04.591Z,98022.34
2022-12-17T12:26:57.185Z,98012.94
2022-12-17T12:29:52.305Z,98011.94
2022-12-17T12:32:43.685Z,98019.31
2022-12-17T12:35:38.030Z,98021.66
2022-12-17T12:38:23.749Z,98020.03
2022-12-17T12:41:17.112Z,98020.25
2022-12-17T12:44:05.279Z,98018.53
2022-12-17T12:46:56.709Z,98017.25
2022-12-17T12:49:48.216Z,98016.66
2022-12-17T12:52:39.411Z,98020.19
2022-12-17T12:55:24.457Z,98021.78
2022-12-17T12:58:15.427Z,98027.66
2022-12-17T13:01:06.817Z,98030.94
2022-12-17T13:04:07.950Z,98034.41
2022-12-17T13:06:37.117Z,98049.28
2022-12-17T13:09:04.628Z,98052.94
2022-12-17T13:11:36.726Z,98063.41
2022-12-17T13:14:10.587Z,98060.63
2022-12-17T13:16:42.679Z,98067.34
2022-12-17T13:19:21.631Z,98078.97
2022-12-17T13:21:48.613Z,98073.63
2022-12-17T13:24:23.937Z,98081.28
2022-12-17T13:26:50.465Z,98080.53
2022-12-17T13:29:37.319Z,98090.50
2022-12-17T13:32:09.862Z,98100.34
2022-12-17T13:34:42.020Z,98095.53
2022-12-17T13:37:15.832Z,98108.16
2022-12-17T13:39:54.557Z,98107.00
2022-12-17T13:42:28.652Z,98111.63
2022-12-17T13:44:55.743Z,98120.31
2022-12-17T13:47:27.686Z,98125.53
2022-12-17T13:50:31.700Z,98116.53
2022-12-17T13:52:42.460Z,98128.84
2022-12-17T13:55:10.277Z,98126.28
2022-12-17T13:57:37.467Z,98130.13
2022-12-17T14:00:04.978Z,98129.41
2022-12-17T14:02:39.434Z,98136.31
2022-12-17T14:05:08.244Z,98137.41
2022-12-17T14:07:37.797Z,98143.59
2022-12-17T14:10:04.734Z,98161.63
2022-12-17T14:12:34.736Z,98161.03
2022-12-17T14:15:03.188Z,98163.94
2022-12-17T14:17:35.765Z,98175.31
2022-12-17T14:20:04.143Z,98175.22
2022-12-17T14:22:36.435Z,98186.69
2022-12-17T14:25:03.872Z,98199.41
2022-12-17T14:27:34.729Z,98205.78
2022-12-17T14:30:01.718Z,98202.34
2022-12-17T14:32:35.176Z,98207.13
2022-12-17T14:35:02.296Z,98206.28
2022-12-17T14:37:29.139Z,98216.13
2022-12-17T14:39:59.260Z,98209.38
2022-12-17T14:42:26.391Z,98225.13
2022-12-17T14:44:55.921Z,98227.84
2022-12-17T14:47:25.406Z,98230.16
2022-12-17T14:49:55.833Z,98233.03
2022-12-17T14:52:25.916Z,98238.84
2022-12-17T14:54:52.337Z,98245.19
2022-12-17T14:57:22.800Z,98246.44
2022-12-17T14:59:50.329Z,98257.28
2022-12-17T15:02:20.312Z,98265.28
2022-12-17T15:04:46.999Z,98268.44
2022-12-17T15:07:17.880Z,98277.69
2022-12-17T15:09:44.924Z,98283.41
2022-12-17T15:12:11.374Z,98295.16
2022-12-17T15:14:37.816Z,98296.81
2022-12-17T15:17:05.282Z,98299.44
2022-12-17T15:19:31.721Z,98304.84
2022-12-17T15:21:58.232Z,98300.44
2022-12-17T15:24:24.689Z,98310.28
2022-12-17T15:26:51.109Z,98311.16
2022-12-17T15:29:17.595Z,98316.47
2022-12-17T15:31:44.124Z,98312.53
2022-12-17T15:34:11.500Z,98318.31
2022-12-17T15:36:39.198Z,98320.81
2022-12-17T15:39:06.994Z,98330.84
2022-12-17T15:41:52.260Z,98326.75
2022-12-17T15:44:18.812Z,98334.63
2022-12-17T15:46:45.349Z,98346.13
2022-12-17T15:49:11.833Z,98343.88
2022-12-17T15:51:38.244Z,98347.16
2022-12-17T15:54:04.780Z,98353.41
2022-12-17T15:56:31.325Z,98359.38
2022-12-17T15:58:59.869Z,98365.84
2022-12-17T16:01:26.924Z,98368.13
2022-12-17T16:03:53.795Z,98366.66
2022-12-17T16:06:20.337Z,98368.19
2022-12-17T16:08:46.756Z,98374.41
2022-12-17T16:11:13.719Z,98381.31
2022-12-17T16:13:40.499Z,98378.06
2022-12-17T16:16:07.783Z,98390.03
2022-12-17T16:18:35.440Z,98390.09
2022-12-17T16:21:06.585Z,98400.69
2022-12-17T16:23:33.081Z,98402.31
2022-12-17T16:26:01.450Z,98399.69
2022-12-17T16:28:28.406Z,98410.06
2022-12-17T16:30:59.627Z,98410.72
2022-12-17T16:33:28.785Z,98417.00
2022-12-17T16:35:59.208Z,98416.59
2022-12-17T16:38:25.687Z,98412.34
2022-12-17T16:40:59.064Z,98426.63
2022-12-17T16:43:26.309Z,98421.59
2022-12-17T16:45:53.821Z,98428.63
2022-12-17T16:48:23.853Z,98435.44
2022-12-17T16:50:51.187Z,98436.84
2022-12-17T16:53:18.469Z,98434.31
2022-12-17T16:55:47.105Z,98440.84
2022-12-17T16:58:16.915Z,98437.16
2022-12-17T17:00:43.770Z,98443.75
2022-12-17T17:03:10.385Z,98458.34
2022-12-17T17:05:37.802Z,98460.53
2022-12-17T17:08:05.053Z,98458.22
2022-12-17T17:10:31.571Z,98456.47
2022-12-17T17:12:58.074Z,98458.44
2022-12-17T17:15:24.681Z,98468.91
2022-12-17T17:17:53.778Z,98481.75
2022-12-17T17:20:22.642Z,98489.41
2022-12-17T17:22:49.423Z,98485.78
2022-12-17T17:25:15.893Z,98485.59
2022-12-17T17:27:42.282Z,98489.78
2022-12-17T17:30:09.041Z,98500.88
2022-12-17T17:32:35.566Z,98515.63
2022-12-17T17:35:02.148Z,98513.13
2022-12-17T17:37:28.552Z,98522.25
2022-12-17T17:39:55.145Z,98522.00
2022-12-17T17:42:21.577Z,98527.72
2022-12-17T17:44:48.755Z,98532.16
2022-12-17T17:47:15.325Z,98537.38
2022-12-17T17:49:41.846Z,98543.81
2022-12-17T17:52:09.993Z,98544.16
2022-12-17T17:54:37.288Z,98547.03
2022-12-17T17:57:03.822Z,98551.38
2022-12-17T17:59:33.587Z,98555.88
2022-12-17T18:02:01.223Z,98559.19
2022-12-17T18:04:28.278Z,98563.97
2022-12-17T18:09:41.169Z,98569.38
2022-12-17T18:12:26.393Z,98571.50
2022-12-17T18:15:13.221Z,98580.00
2022-12-17T18:17:39.411Z,98582.97
2022-12-17T18:20:06.276Z,98578.91
2022-12-17T18:22:32.759Z,98586.88
2022-12-17T18:24:59.165Z,98594.31
2022-12-17T18:27:25.624Z,98598.28
2022-12-17T18:29:52.075Z,98595.84
2022-12-17T18:32:18.553Z,98598.66
2022-12-17T18:34:45.004Z,98610.59
2022-12-17T18:37:11.452Z,98606.50
2022-12-17T18:39:37.865Z,98613.53
2022-12-17T18:42:23.106Z,98618.63
2022-12-17T18:44:49.582Z,98619.44
2022-12-17T18:47:16.151Z,98627.81
2022-12-17T18:49:42.672Z,98626.31
2022-12-17T18:52:14.811Z,98630.09
2022-12-17T18:54:43.099Z,98629.16
2022-12-17T18:57:09.535Z,98631.66
2022-12-17T18:59:35.990Z,98639.94
2022-12-17T19:02:02.961Z,98643.47
2022-12-17T19:04:29.461Z,98648.25
2022-12-17T19:06:56.026Z,98647.81
2022-12-17T19:09:23.027Z,98649.69
2022-12-17T19:11:50.340Z,98662.47
2022-12-17T19:14:17.863Z,98656.19
2022-12-17T19:16:44.726Z,98663.44
2022-12-17T19:19:12.353Z,98673.41
2022-12-17T19:21:38.792Z,98661.34
2022-12-17T19:24:07.196Z,98682.78
2022-12-17T19:26:34.096Z,98683.75
2022-12-17T19:29:01.346Z,98689.09
2022-12-17T19:31:30.722Z,98681.47
2022-12-17T19:34:01.142Z,98686.50
2022-12-17T19:36:28.809Z,98675.03
2022-12-17T19:38:56.743Z,98687.22
2022-12-17T19:41:23.702Z,98690.53
2022-12-17T19:43:54.433Z,98697.59
2022-12-17T19:46:21.005Z,98705.25
2022-12-17T19:48:49.018Z,98709.38
2022-12-17T19:51:16.913Z,98711.66
2022-12-17T19:53:44.117Z,98709.44
2022-12-17T19:56:10.622Z,98703.72
2022-12-17T19:58:37.510Z,98714.22
2022-12-17T20:01:12.434Z,98721.50
2022-12-17T20:03:40.172Z,98711.53
2022-12-17T20:06:07.383Z,98719.41
2022-12-17T20:08:33.933Z,98719.28
2022-12-17T20:11:01.261Z,98719.88
2022-12-17T20:13:28.326Z,98719.53
2022-12-17T20:16:02.277Z,98721.75
2022-12-17T20:18:28.846Z,98727.34
2022-12-17T20:21:02.719Z,98740.28
2022-12-17T20:23:29.366Z,98729.00
2022-12-17T20:26:02.807Z,98732.19
2022-12-17T20:28:29.257Z,98738.47
2022-12-17T20:30:55.673Z,98742.88
2022-12-17T20:33:24.641Z,98746.47
2022-12-17T20:35:51.364Z,98746.84
2022-12-17T20:38:17.788Z,98742.47
2022-12-17T20:40:45.169Z,98748.19
2022-12-17T20:43:11.639Z,98755.47
2022-12-17T20:45:38.360Z,98759.56
2022-12-17T20:48:04.969Z,98763.28
2022-12-17T20:50:31.468Z,98767.19
2022-12-17T20:52:57.952Z,98766.38
2022-12-17T20:55:30.860Z,98759.41
2022-12-17T20:57:57.709Z,98768.94
2022-12-17T21:00:25.957Z,98763.19
2022-12-17T21:02:52.489Z,98768.31
2022-12-17T21:05:19.055Z,98775.38
2022-12-17T21:07:45.621Z,98776.78
2022-12-17T21:10:12.661Z,98773.50
2022-12-17T21:12:57.892Z,98779.75
2022-12-17T21:15:24.345Z,98787.31
2022-12-17T21:17:50.767Z,98788.25
2022-12-17T21:20:17.267Z,98790.75
2022-12-17T21:22:44.105Z,98795.84
2022-12-17T21:25:10.612Z,98793.38
2022-12-17T21:27:37.052Z,98803.28
2022-12-17T21:30:05.975Z,98802.94
2022-12-17T21:32:36.200Z,98807.28
2022-12-17T21:35:02.825Z,98806.53
2022-12-17T21:37:29.362Z,98809.44
2022-12-17T21:39:59.722Z,98809.44
2022-12-17T21:42:45.201Z,98812.69
2022-12-17T21:45:11.711Z,98808.53
2022-12-17T21:47:38.393Z,98818.28
2022-12-17T21:50:04.997Z,98823.91
2022-12-17T21:52:31.481Z,98830.50
2022-12-17T21:54:57.933Z,98828.44
2022-12-17T21:57:24.384Z,98836.41
2022-12-17T21:59:50.871Z,98838.03
2022-12-17T22:02:18.349Z,98846.47
2022-12-17T22:04:45.011Z,98848.63
2022-12-17T22:07:17.378Z,98848.16
2022-12-17T22:10:27.982Z,98856.81
2022-12-17T22:12:51.704Z,98859.97
2022-12-17T22:15:18.174Z,98859.47
2022-12-17T22:17:45.560Z,98859.81
2022-12-17T22:20:12.491Z,98862.69
2022-12-17T22:22:38.903Z,98855.19
2022-12-17T22:25:08.682Z,98856.63
2022-12-17T22:27:36.945Z,98858.22
2022-12-17T22:30:22.894Z,98858.13
2022-12-17T22:33:08.968Z,98864.53
2022-12-17T22:36:55.662Z,98869.59
2022-12-17T22:41:11.172Z,98860.75
2022-12-17T22:44:49.038Z,98860.41
2022-12-17T22:44:51.256Z,98857.13
2022-12-17T22:47:15.980Z,98865.50
2022-12-17T22:49:44.125Z,98864.91
2022-12-17T22:52:11.060Z,98869.50
2022-12-17T22:54:37.870Z,98879.28
2022-12-17T22:57:35.158Z,98879.59
2022-12-17T22:59:51.015Z,98875.84
2022-12-17T23:02:17.619Z,98878.56
2022-12-17T23:04:44.421Z,98876.31
2022-12-17T23:07:10.825Z,98879.09
2022-12-17T23:09:37.305Z,98869.03
2022-12-17T23:12:23.853Z,98874.13
2022-12-17T23:14:50.383Z,98875.94
2022-12-17T23:17:17.035Z,98869.94
2022-12-17T23:19:43.439Z,98874.09
2022-12-17T23:22:10.145Z,98868.81
2022-12-17T23:24:36.638Z,98880.38
2022-12-17T23:27:03.102Z,98880.66
2022-12-17T23:29:29.565Z,98874.78
2022-12-17T23:31:55.997Z,98883.38
2022-12-17T23:34:22.422Z,98879.09
2022-12-17T23:36:48.858Z,98887.84
2022-12-17T23:39:15.346Z,98887.63
2022-12-17T23:41:41.813Z,98889.94
2022-12-17T23:44:08.327Z,98902.88
2022-12-17T23:46:34.880Z,98896.06
2022-12-17T23:49:03.815Z,98898.84
2022-12-17T23:51:30.252Z,98903.88
2022-12-17T23:53:58.325Z,98897.63
2022-12-17T23:56:26.236Z,98900.94
2022-12-17T23:58:57.438Z,98902.31
